Raleigh Durham International Airport
KRDU : now visible

Airfield :











YOU CAN JOIN US ON...

 
LOGIN :

Register | Disclaimer

   EN    FR    IT 

 









Legend :    VFR   Marginal VFR   IFR   Intensive IFR   Very Intensive IFR
Visi :
Ceiling :
>= 8 km
>= 3000ft
5 to 8 km
1000 to 3000 ft
1500m to 5 km
500 to 1000 ft
800 to 1500m
200 to 500 ft
< 800m
< 200 ft
Symbols :   Thunderstorms  Fog  Heavy snow  Heavy precipitations  Wind > 20 kt






- Airport Elevation : 435 ft
- IATA code : RDU


KRDU - Raleigh Durham International

CURRENT METAR :
  • 231251Z 28005KT 10SM FEW250 12/07 A3024 RMK T01220072

EXPIRED METARs :
  • 231151Z 00000KT 10SM FEW250 07/05 A3023 RMK T00720050
  • 231051Z 00000KT 10SM BCFG FEW250 03/00 A3020 RMK T00280000
  • 230951Z 00000KT 10SM BCFG FEW250 03/M01 A3019 RMK T00281006
  • 230851Z 00000KT 7SM BCFG FEW250 03/00 A3019 RMK T00280000

TAF KRDU
Valid from the 23 at 12:00 until the 24 at 12:00 UTC


231120Z 2312/2412 00000KT P6SM SKC
FM231400 23011KT P6SM SKC
FM232300 21009KT P6SM BKN250
KZDC FIR / North America



MET'MAP, your aeronautical weather chart ! - Copyright ORBIFLY December 2007 - Disclaimer

ORBIFLY MET'MAP TEAM :

Programming & Development : Alexandra Zaïnal
Original concept : Baudouin d'Aumeries
Technical & hardware support : Manuel Goepfert
Assistance : Marc-Olivier Méhu




SOURCES & CREDITS :

   NOAA       Earth
Advisory